Time;durP1;ratioP1;P1;durP2;ratioP2;P2;SDS_P1;SDS_P2;PMS_P1;PMS_P2;Temp;Humidity;BMP_temperature;BMP_pressure;BME280_temperature;BME280_humidity;BME280_pressure;Samples;Min_cycle;Max_cycle;Signal;HPM_P1;HPM_P2
2022/01/31 00:02:07;;;;;;;12.30;8.37;;;-0.10;99.90;;;0.84;88.25;98354.53;5203631;28;20219;-64
2022/01/31 00:04:42;;;;;;;16.37;9.10;;;-0.10;99.90;;;0.81;87.29;98351.72;5204999;28;20234;-64
2022/01/31 00:07:17;;;;;;;15.73;8.37;;;-0.20;99.90;;;0.66;87.86;98350.16;5203893;28;20350;-64
2022/01/31 00:09:50;;;;;;;13.57;8.90;;;-0.20;99.90;;;0.61;88.61;98347.16;5206411;28;20229;-64
2022/01/31 00:12:28;;;;;;;14.43;10.87;;;-0.10;99.90;;;0.59;89.69;98357.78;5202189;28;20214;-64
2022/01/31 00:15:03;;;;;;;17.87;10.30;;;-0.10;99.90;;;0.58;89.35;98351.88;5205582;28;20338;-64
2022/01/31 00:17:37;;;;;;;14.40;9.40;;;-0.20;99.90;;;0.61;89.20;98346.25;5203593;28;20233;-63
2022/01/31 00:20:11;;;;;;;13.23;9.40;;;-0.20;99.90;;;0.60;89.34;98349.50;5204105;28;20262;-64
2022/01/31 00:22:44;;;;;;;10.43;8.53;;;-0.20;99.90;;;0.60;89.63;98344.47;5202915;28;20228;-64
2022/01/31 00:25:17;;;;;;;14.43;8.57;;;-0.20;99.90;;;0.63;90.35;98330.59;5204983;28;20233;-64
2022/01/31 00:27:51;;;;;;;17.03;8.90;;;0.00;99.90;;;0.66;90.21;98337.56;5204657;28;20640;-67
2022/01/31 00:30:25;;;;;;;12.87;9.47;;;-0.10;99.90;;;0.71;90.16;98330.47;5204793;28;20219;-66
2022/01/31 00:32:58;;;;;;;17.53;13.00;;;0.00;99.90;;;0.86;88.47;98310.31;5203187;28;20227;-65
2022/01/31 00:35:31;;;;;;;15.73;11.67;;;-0.10;99.90;;;0.84;88.11;98308.38;5202748;28;20225;-65
2022/01/31 00:38:04;;;;;;;16.87;11.53;;;-0.10;99.90;;;0.66;88.05;98282.25;5205146;28;20300;-64
2022/01/31 00:40:41;;;;;;;15.40;12.17;;;-0.10;99.90;;;0.67;89.18;98284.91;5203952;28;20301;-66
2022/01/31 00:43:18;;;;;;;16.70;12.00;;;-0.10;99.90;;;0.63;89.47;98302.03;5205272;28;20232;-65
2022/01/31 00:46:00;;;;;;;21.13;12.60;;;-0.10;99.90;;;0.64;90.04;98293.75;5202658;28;20221;-66
2022/01/31 00:48:40;;;;;;;22.43;14.67;;;0.00;99.90;;;0.67;90.32;98287.41;5203548;28;20232;-65
2022/01/31 00:51:13;;;;;;;15.80;12.50;;;0.00;99.90;;;0.77;90.59;98278.28;5203554;28;20680;-66
2022/01/31 00:53:46;;;;;;;12.93;10.67;;;0.10;99.90;;;0.77;89.57;98270.72;5206216;28;20226;-66
2022/01/31 00:56:19;;;;;;;13.43;10.30;;;0.10;99.90;;;0.82;90.22;98280.53;5205156;28;20221;-65
2022/01/31 00:58:54;;;;;;;15.63;10.43;;;0.20;99.90;;;0.90;90.58;98251.09;5205308;28;20235;-66
2022/01/31 01:01:27;;;;;;;15.57;10.40;;;0.30;99.90;;;1.01;90.09;98244.63;5197923;28;20221;-66
2022/01/31 01:04:00;;;;;;;11.13;8.57;;;0.30;99.90;;;1.03;90.56;98243.13;5204775;28;20687;-65
2022/01/31 01:06:33;;;;;;;14.90;8.70;;;0.40;99.90;;;1.08;90.74;98230.28;5204315;28;20249;-66
2022/01/31 01:09:07;;;;;;;15.03;9.90;;;0.40;99.90;;;1.11;89.39;98229.69;5204271;28;20222;-65
2022/01/31 01:11:41;;;;;;;10.30;8.40;;;0.30;99.90;;;1.09;90.05;98224.53;5203748;28;20240;-64
2022/01/31 01:14:15;;;;;;;11.70;9.10;;;0.40;99.90;;;1.15;90.27;98234.31;5197621;28;20250;-66
2022/01/31 01:16:48;;;;;;;10.87;8.77;;;0.40;99.90;;;1.19;90.07;98216.25;5202450;28;20232;-64
2022/01/31 01:19:21;;;;;;;14.63;8.50;;;0.40;99.90;;;1.22;89.27;98200.56;5203027;28;20218;-65
2022/01/31 01:21:55;;;;;;;12.67;9.93;;;0.50;99.90;;;1.32;89.14;98189.03;5204349;28;20242;-65
2022/01/31 01:24:29;;;;;;;15.53;9.27;;;0.50;99.90;;;1.27;89.41;98192.72;5204383;28;20313;-65
2022/01/31 01:27:02;;;;;;;14.17;9.13;;;0.50;99.90;;;1.29;89.13;98177.78;5205392;28;20244;-64
2022/01/31 01:29:37;;;;;;;13.93;9.53;;;0.50;99.90;;;1.32;89.44;98184.00;5204056;28;20226;-64
2022/01/31 01:32:10;;;;;;;10.10;8.90;;;0.50;99.90;;;1.34;89.13;98167.41;5202473;28;20829;-65
2022/01/31 01:34:44;;;;;;;13.23;9.00;;;0.60;99.90;;;1.43;89.20;98156.44;5203586;28;20242;-65
2022/01/31 01:37:20;;;;;;;12.20;9.80;;;0.60;99.90;;;1.40;89.14;98153.63;5204713;28;20264;-66
2022/01/31 01:39:53;;;;;;;13.43;9.30;;;0.60;99.90;;;1.43;88.91;98151.38;5203514;28;20245;-66
2022/01/31 01:42:26;;;;;;;10.90;9.03;;;0.60;99.90;;;1.45;89.01;98149.91;5204810;28;20221;-67
2022/01/31 01:45:00;;;;;;;11.33;8.83;;;0.60;99.90;;;1.42;88.95;98150.50;5203688;28;20251;-65
2022/01/31 01:47:33;;;;;;;12.87;9.70;;;0.60;99.90;;;1.40;89.46;98151.97;5203090;28;20223;-66
2022/01/31 01:50:08;;;;;;;11.77;9.30;;;0.60;99.90;;;1.53;88.45;98121.31;5203749;28;20228;-65
2022/01/31 01:52:41;;;;;;;13.80;9.63;;;0.60;99.90;;;1.41;89.00;98093.34;5201029;28;20221;-65
2022/01/31 01:55:15;;;;;;;11.10;9.03;;;0.60;99.90;;;1.38;88.47;98077.06;5196501;28;20219;-63
2022/01/31 01:57:48;;;;;;;10.57;8.97;;;0.50;99.90;;;1.30;89.18;98051.13;5203931;28;20232;-65
2022/01/31 02:00:26;;;;;;;9.27;7.30;;;0.50;99.90;;;1.28;90.24;98040.91;5203573;28;20699;-65
2022/01/31 02:02:59;;;;;;;13.77;8.07;;;0.50;99.90;;;1.28;89.95;98015.72;5202203;28;20220;-65
2022/01/31 02:05:33;;;;;;;11.83;8.70;;;0.50;99.90;;;1.23;90.37;98009.41;5203671;28;20231;-65
2022/01/31 02:08:06;;;;;;;11.90;8.70;;;0.60;99.90;;;1.29;90.70;98007.47;5202022;28;20219;-66
2022/01/31 02:10:39;;;;;;;9.70;8.70;;;0.60;99.90;;;1.35;90.38;97985.38;5202927;28;20234;-65
2022/01/31 02:13:15;;;;;;;12.73;8.73;;;0.60;99.90;;;1.38;90.26;97974.72;5202790;28;20220;-66
2022/01/31 02:15:51;;;;;;;10.17;8.83;;;0.70;99.90;;;1.43;89.70;97980.16;5202004;28;20211;-66
2022/01/31 02:18:27;;;;;;;11.83;8.60;;;0.70;99.90;;;1.48;89.50;97976.44;5203309;28;20252;-65
2022/01/31 02:21:03;;;;;;;11.47;8.80;;;0.80;99.90;;;1.52;90.00;97958.38;5203541;28;20224;-66
2022/01/31 02:23:36;;;;;;;14.90;9.40;;;0.80;99.90;;;1.60;89.50;97975.06;5203827;28;20355;-64
2022/01/31 02:26:09;;;;;;;12.57;8.43;;;0.90;99.90;;;1.65;90.51;97963.78;5202995;28;20250;-65
2022/01/31 02:28:43;;;;;;;14.73;8.87;;;0.90;99.90;;;1.68;90.19;97948.06;5203370;28;20227;-64
2022/01/31 02:31:16;;;;;;;16.67;9.37;;;1.00;99.90;;;1.77;90.05;97932.19;5198901;28;20229;-65
2022/01/31 02:33:49;;;;;;;11.70;8.70;;;1.00;99.90;;;1.87;89.70;97936.41;5203563;28;20252;-66
2022/01/31 02:36:24;;;;;;;12.70;9.50;;;1.00;99.90;;;1.88;88.84;97922.19;5202796;28;20231;-66
2022/01/31 02:38:57;;;;;;;13.80;8.80;;;0.90;99.90;;;1.73;88.48;97907.44;5203513;28;20730;-63
2022/01/31 02:41:30;;;;;;;11.40;9.40;;;0.90;99.90;;;1.74;88.79;97904.16;5202924;28;20220;-66
2022/01/31 02:44:08;;;;;;;12.00;8.23;;;0.90;99.90;;;1.69;88.81;97918.00;5204493;28;20595;-64
2022/01/31 02:46:48;;;;;;;13.20;8.97;;;0.90;99.90;;;1.70;89.61;97912.19;5202792;28;20932;-66
2022/01/31 02:49:25;;;;;;;14.03;9.73;;;1.00;99.90;;;1.74;89.22;97905.81;5199188;28;20230;-65
2022/01/31 02:52:00;;;;;;;12.20;8.57;;;1.00;99.90;;;1.87;89.23;97903.66;5202628;28;20223;-65
2022/01/31 02:54:33;;;;;;;9.63;8.70;;;1.00;99.90;;;1.85;89.17;97896.72;5204050;28;20589;-66
2022/01/31 02:57:06;;;;;;;9.77;7.73;;;1.10;99.90;;;1.90;88.84;97885.41;5203307;28;20216;-64
2022/01/31 02:59:40;;;;;;;11.83;8.60;;;1.00;99.90;;;1.93;89.00;97880.66;5203239;28;20224;-66
2022/01/31 03:02:14;;;;;;;14.03;9.27;;;1.00;99.90;;;1.89;89.37;97874.47;5202246;28;20588;-66
2022/01/31 03:04:47;;;;;;;13.70;8.70;;;1.00;99.90;;;1.90;88.53;97857.69;5204606;28;20323;-64
2022/01/31 03:07:21;;;;;;;12.33;8.30;;;1.00;99.90;;;1.96;89.00;97845.66;5205593;28;20606;-66
2022/01/31 03:09:54;;;;;;;16.70;9.03;;;1.10;99.90;;;1.94;89.54;97839.56;5206660;28;20221;-66
2022/01/31 03:12:27;;;;;;;12.77;9.10;;;1.10;99.90;;;2.00;89.25;97837.59;5207935;28;20228;-65
2022/01/31 03:15:01;;;;;;;13.47;8.13;;;1.20;99.90;;;1.95;89.17;97823.72;5207081;28;20636;-65
2022/01/31 03:17:35;;;;;;;11.27;7.97;;;1.10;99.90;;;1.98;89.42;97803.84;5204780;28;20697;-62
2022/01/31 03:20:10;;;;;;;13.30;8.50;;;1.20;99.90;;;1.98;89.40;97788.72;5206681;28;20226;-66
2022/01/31 03:22:44;;;;;;;12.90;8.67;;;1.20;99.90;;;2.04;88.64;97794.28;5207254;28;20223;-66
2022/01/31 03:25:18;;;;;;;14.70;8.13;;;1.20;99.90;;;2.02;88.86;97786.56;5206340;28;20234;-65
2022/01/31 03:27:51;;;;;;;14.77;8.37;;;1.30;99.90;;;2.03;89.85;97793.41;5206542;28;20221;-67
2022/01/31 03:30:25;;;;;;;11.67;7.40;;;1.30;99.90;;;2.18;89.60;97770.28;5207064;28;20220;-65
2022/01/31 03:32:58;;;;;;;16.70;8.37;;;1.30;99.90;;;2.37;87.87;97747.53;5205591;28;20295;-65
2022/01/31 03:35:31;;;;;;;13.30;7.87;;;1.50;99.90;;;2.45;88.25;97744.94;5207008;28;20229;-63
2022/01/31 03:38:05;;;;;;;14.03;8.33;;;1.70;99.90;;;2.60;86.90;97732.75;5205947;28;20218;-66
2022/01/31 03:40:39;;;;;;;13.07;8.70;;;1.80;99.90;;;2.69;87.17;97728.50;5206614;28;20232;-65
2022/01/31 03:43:12;;;;;;;10.20;8.43;;;2.00;99.90;;;2.74;85.85;97733.91;5206267;28;20207;-65
2022/01/31 03:45:45;;;;;;;16.33;8.60;;;2.00;99.90;;;2.70;86.03;97716.75;5207271;28;20232;-65
2022/01/31 03:48:18;;;;;;;11.70;8.40;;;2.00;99.90;;;2.82;85.86;97706.81;5202794;28;20236;-65
2022/01/31 03:50:51;;;;;;;14.03;9.30;;;1.90;99.90;;;2.69;86.24;97702.38;5204846;28;20222;-65
2022/01/31 03:53:26;;;;;;;10.80;8.10;;;1.90;99.90;;;2.77;85.67;97687.88;5206013;28;20213;-63
2022/01/31 03:55:59;;;;;;;13.13;8.07;;;2.00;99.90;;;2.77;86.28;97697.97;5205673;28;20224;-65
2022/01/31 03:58:32;;;;;;;15.67;9.17;;;2.00;99.90;;;2.62;85.55;97695.03;5206205;28;20229;-65
2022/01/31 04:01:05;;;;;;;10.57;7.93;;;2.00;99.90;;;2.58;86.20;97721.66;5204225;28;20219;-65
2022/01/31 04:03:39;;;;;;;12.97;8.50;;;1.90;99.90;;;2.64;85.62;97734.78;5198228;28;20716;-63
2022/01/31 04:06:12;;;;;;;15.43;8.40;;;1.90;99.90;;;2.77;85.90;97729.13;5199818;28;20306;-64
2022/01/31 04:08:46;;;;;;;11.63;7.63;;;2.00;99.90;;;2.83;85.48;97723.72;5205021;28;20222;-63
2022/01/31 04:11:20;;;;;;;12.33;8.07;;;2.10;99.90;;;2.97;85.10;97723.22;5205680;28;20215;-64
2022/01/31 04:13:53;;;;;;;12.67;7.67;;;2.10;99.90;;;3.00;84.78;97715.03;5204676;28;20245;-65
2022/01/31 04:16:26;;;;;;;11.93;8.00;;;2.20;99.90;;;3.15;83.28;97691.09;5204035;28;20222;-64
2022/01/31 04:18:59;;;;;;;12.87;8.63;;;2.30;99.90;;;3.11;83.60;97677.28;5205435;28;20229;-65
2022/01/31 04:21:33;;;;;;;13.23;8.53;;;2.40;99.90;;;3.21;82.94;97684.00;5205562;28;20230;-65
2022/01/31 04:24:08;;;;;;;18.30;9.00;;;2.50;99.90;;;3.10;83.63;97685.63;5205952;28;20220;-64
2022/01/31 04:26:45;;;;;;;12.83;8.80;;;2.40;99.90;;;3.08;84.28;97681.22;5205336;28;20696;-63
2022/01/31 04:29:19;;;;;;;12.47;8.97;;;2.40;99.90;;;3.03;84.80;97683.34;5197955;28;20232;-64
2022/01/31 04:31:54;;;;;;;10.07;8.30;;;2.30;99.90;;;3.11;84.26;97687.41;5204836;28;20237;-65
2022/01/31 04:34:29;;;;;;;12.63;8.27;;;2.40;99.90;;;3.08;83.17;97672.00;5204585;28;20232;-63
2022/01/31 04:37:03;;;;;;;10.77;7.80;;;2.40;99.90;;;3.17;83.19;97662.66;5249891;22;20617;-58
2022/01/31 04:39:37;;;;;;;13.07;8.07;;;2.50;99.90;;;3.20;83.23;97648.50;5243920;28;20606;-61
2022/01/31 04:42:10;;;;;;;10.90;8.20;;;2.50;99.90;;;3.26;82.78;97642.34;5246122;28;20215;-61
2022/01/31 04:44:43;;;;;;;12.33;8.07;;;2.50;99.90;;;3.36;82.59;97638.91;5246771;28;20670;-61
2022/01/31 04:47:16;;;;;;;12.03;7.87;;;2.70;99.90;;;3.37;82.35;97636.50;5237465;28;20222;-61
2022/01/31 04:49:51;;;;;;;11.60;8.30;;;2.60;99.90;;;3.37;82.78;97640.66;5237008;28;20259;-60
2022/01/31 04:52:24;;;;;;;11.70;7.50;;;2.60;99.90;;;3.30;83.00;97621.63;5226265;28;20225;-62
2022/01/31 04:54:59;;;;;;;11.57;7.23;;;2.60;99.90;;;3.34;82.99;97618.56;5231698;28;20703;-60
2022/01/31 04:57:32;;;;;;;11.23;7.90;;;2.60;99.90;;;3.39;82.43;97599.63;5246954;28;20218;-60
2022/01/31 05:00:08;;;;;;;11.37;7.87;;;2.60;99.90;;;3.47;82.30;97595.19;5224414;28;20222;-61
2022/01/31 05:02:41;;;;;;;11.40;7.63;;;2.60;99.90;;;3.42;82.87;97572.84;5212869;28;20220;-61
2022/01/31 05:05:14;;;;;;;11.57;7.93;;;2.60;99.90;;;3.36;83.21;97563.13;5224642;28;20221;-61
2022/01/31 05:07:48;;;;;;;11.57;7.97;;;2.60;99.90;;;3.41;82.81;97554.28;5239444;28;20231;-61
2022/01/31 05:10:23;;;;;;;12.00;8.37;;;2.60;99.90;;;3.39;83.13;97544.03;5229231;28;20303;-61
2022/01/31 05:12:56;;;;;;;11.40;7.93;;;2.60;99.90;;;3.49;83.04;97535.56;5230603;28;20224;-61
2022/01/31 05:15:30;;;;;;;11.07;7.57;;;2.70;99.90;;;3.58;82.11;97521.13;5218720;28;20700;-60
2022/01/31 05:18:04;;;;;;;14.87;7.87;;;2.80;99.90;;;3.53;81.88;97517.34;5235106;28;20258;-61
2022/01/31 05:20:38;;;;;;;11.47;6.90;;;2.80;99.90;;;3.65;81.40;97506.44;5214609;28;20223;-61
2022/01/31 05:23:11;;;;;;;9.73;6.80;;;2.90;99.90;;;3.66;81.92;97493.03;5229478;28;20594;-61
2022/01/31 05:25:45;;;;;;;9.80;7.07;;;3.00;99.90;;;3.73;81.22;97478.47;5230389;28;20224;-61
2022/01/31 05:28:18;;;;;;;9.73;6.57;;;3.00;99.90;;;3.75;80.76;97474.41;5239870;28;20226;-60
2022/01/31 05:30:51;;;;;;;9.53;6.50;;;3.10;99.90;;;3.89;80.53;97457.75;5217128;28;20222;-62
2022/01/31 05:33:24;;;;;;;11.27;6.60;;;3.20;99.90;;;3.94;79.95;97440.41;5236378;28;20704;-61
2022/01/31 05:35:58;;;;;;;10.70;6.83;;;3.20;99.90;;;3.89;80.35;97434.13;5235227;28;20236;-61
2022/01/31 05:38:34;;;;;;;10.13;6.63;;;3.20;99.90;;;3.90;80.18;97434.25;5209963;28;20219;-61
2022/01/31 05:41:16;;;;;;;10.27;6.07;;;3.30;99.90;;;3.91;79.87;97441.06;5219025;28;20232;-62
2022/01/31 05:43:50;;;;;;;11.87;6.37;;;3.20;99.90;;;3.98;79.33;97433.19;5228951;28;20232;-62
2022/01/31 05:46:23;;;;;;;10.57;6.67;;;3.30;99.90;;;3.99;79.27;97429.88;5215968;28;20221;-62
2022/01/31 05:48:56;;;;;;;13.20;6.47;;;3.30;99.90;;;4.06;79.25;97427.06;5229990;28;20228;-62
2022/01/31 05:51:29;;;;;;;8.67;5.67;;;3.40;99.90;;;4.08;78.58;97414.50;5224730;28;20214;-62
2022/01/31 05:54:03;;;;;;;9.53;7.00;;;3.40;99.90;;;3.98;78.82;97402.84;5206325;28;20228;-62
2022/01/31 05:56:38;;;;;;;12.07;6.07;;;3.50;99.90;;;4.03;79.16;97401.56;5221057;28;20229;-62
2022/01/31 05:59:11;;;;;;;11.83;5.73;;;3.50;99.90;;;4.11;78.78;97401.22;5225161;28;20225;-62
2022/01/31 06:01:44;;;;;;;9.37;6.07;;;3.50;99.90;;;4.13;77.88;97377.81;5216246;28;20224;-61
2022/01/31 06:04:17;;;;;;;12.37;6.00;;;3.50;99.90;;;4.23;77.69;97366.72;5231892;28;20316;-62
2022/01/31 06:06:50;;;;;;;11.30;6.80;;;3.60;99.90;;;4.20;77.62;97374.94;5242196;28;20222;-62
2022/01/31 06:09:30;;;;;;;10.00;5.70;;;3.60;99.90;;;4.22;78.06;97362.44;5225632;28;20222;-62
2022/01/31 06:12:06;;;;;;;8.30;6.17;;;3.50;99.90;;;4.26;77.61;97355.19;5220598;28;20226;-62
2022/01/31 06:14:40;;;;;;;8.53;5.37;;;3.60;99.90;;;4.20;77.74;97361.44;5224926;28;20234;-63
2022/01/31 06:17:13;;;;;;;7.77;5.40;;;3.60;99.90;;;4.27;77.49;97361.13;5225500;28;20219;-61
2022/01/31 06:19:47;;;;;;;10.00;5.70;;;3.60;99.90;;;4.36;77.72;97349.13;5219727;28;20242;-62
2022/01/31 06:22:20;;;;;;;7.77;5.43;;;3.80;99.90;;;4.23;78.85;97357.47;5218108;28;20218;-61
2022/01/31 06:24:53;;;;;;;9.83;5.30;;;3.70;99.90;;;4.20;79.81;97359.78;5221655;28;20213;-62
2022/01/31 06:27:27;;;;;;;7.50;5.33;;;3.60;99.90;;;4.30;79.44;97351.22;5216870;28;20223;-61
2022/01/31 06:30:00;;;;;;;8.97;6.17;;;3.70;99.90;;;4.29;79.80;97344.38;5223574;28;20228;-61
2022/01/31 06:32:33;;;;;;;9.50;5.90;;;3.60;99.90;;;4.27;80.09;97335.84;5221906;28;20223;-61
2022/01/31 06:35:08;;;;;;;9.20;5.80;;;3.50;99.90;;;4.34;79.71;97340.53;5227076;28;20340;-62
2022/01/31 06:37:42;;;;;;;12.47;6.07;;;3.60;99.90;;;4.31;80.72;97332.75;5226874;28;20594;-62
2022/01/31 06:40:15;;;;;;;10.93;5.90;;;3.50;99.90;;;4.25;81.54;97317.13;5220882;28;20698;-62
2022/01/31 06:42:49;;;;;;;9.20;6.50;;;3.50;99.90;;;4.22;82.78;97332.06;5231504;28;20228;-62
2022/01/31 06:45:22;;;;;;;9.40;5.67;;;3.40;99.90;;;4.12;83.93;97322.06;5232416;28;20224;-62
2022/01/31 06:47:56;;;;;;;10.97;6.33;;;3.40;99.90;;;4.04;84.01;97324.03;5237577;28;20221;-62
2022/01/31 06:50:29;;;;;;;10.20;6.17;;;3.30;99.90;;;4.01;85.07;97327.22;5226511;28;20232;-61
2022/01/31 06:53:05;;;;;;;8.70;5.70;;;3.20;99.90;;;4.00;85.04;97319.50;5233511;28;20614;-61
2022/01/31 06:55:38;;;;;;;8.40;5.80;;;3.20;99.90;;;3.94;85.16;97316.53;5226595;28;20230;-62
2022/01/31 06:58:12;;;;;;;8.30;6.10;;;3.30;99.90;;;3.97;85.74;97324.34;5230260;28;20694;-61
2022/01/31 07:00:46;;;;;;;10.53;5.63;;;3.20;99.90;;;3.89;85.98;97331.34;5232788;28;20229;-62
2022/01/31 07:03:19;;;;;;;9.07;5.80;;;3.20;99.90;;;4.04;85.89;97332.50;5234208;28;20248;-62
2022/01/31 07:05:52;;;;;;;8.57;5.70;;;3.30;99.90;;;3.86;87.58;97327.72;5226966;28;20284;-62
2022/01/31 07:08:25;;;;;;;9.63;5.87;;;3.20;99.90;;;3.68;88.92;97319.66;5236278;28;20330;-62
2022/01/31 07:10:58;;;;;;;9.57;6.10;;;3.10;99.90;;;3.68;89.47;97337.34;5222051;28;20223;-62
2022/01/31 07:13:38;;;;;;;9.27;6.00;;;3.10;99.90;;;3.53;90.34;97344.69;5225127;28;20229;-62
2022/01/31 07:16:11;;;;;;;9.60;5.40;;;3.00;99.90;;;3.46;91.36;97342.44;5234312;28;20224;-61
2022/01/31 07:18:45;;;;;;;7.47;5.47;;;2.90;99.90;;;3.43;92.04;97345.59;5226133;28;20225;-62
2022/01/31 07:21:18;;;;;;;11.23;6.27;;;2.90;99.90;;;3.43;92.32;97343.06;5241247;28;20220;-61
2022/01/31 07:24:04;;;;;;;7.73;6.40;;;2.80;99.90;;;3.36;92.77;97340.88;5236722;28;20225;-62
2022/01/31 07:26:39;;;;;;;7.73;6.50;;;2.80;99.90;;;3.26;94.22;97348.50;5230304;28;20226;-62
2022/01/31 07:29:14;;;;;;;10.60;6.10;;;2.80;99.90;;;3.27;94.54;97341.06;5227388;28;20222;-62
2022/01/31 07:31:48;;;;;;;10.60;6.60;;;2.80;99.90;;;3.43;94.49;97332.09;5225809;28;20245;-61
2022/01/31 07:34:21;;;;;;;10.33;6.70;;;2.80;99.90;;;3.45;95.15;97336.50;5218357;28;20222;-62
2022/01/31 07:36:54;;;;;;;11.17;6.07;;;2.80;99.90;;;3.37;95.27;97333.38;5229972;28;20237;-61
2022/01/31 07:39:27;;;;;;;9.97;6.80;;;2.80;99.90;;;3.34;96.82;97327.22;5215259;28;20225;-62
2022/01/31 07:42:00;;;;;;;11.97;6.93;;;2.80;99.90;;;3.52;95.87;97317.63;5217755;28;20237;-62
2022/01/31 07:44:35;;;;;;;10.47;6.33;;;2.90;99.90;;;3.52;96.29;97328.66;5233978;28;20244;-63
2022/01/31 07:47:08;;;;;;;10.53;7.20;;;2.90;99.90;;;3.35;96.98;97334.06;5226911;28;20726;-63
2022/01/31 07:49:42;;;;;;;11.20;7.43;;;2.90;99.90;;;3.33;97.41;97331.41;5226962;28;20231;-63
2022/01/31 07:52:15;;;;;;;9.10;6.93;;;2.80;99.90;;;3.33;97.52;97333.94;5222594;28;20225;-63
2022/01/31 07:54:48;;;;;;;9.20;7.57;;;2.80;99.90;;;3.27;97.30;97335.13;5244134;28;20226;-63
2022/01/31 07:57:24;;;;;;;11.90;7.10;;;2.70;99.90;;;3.25;97.87;97352.66;5242554;28;20235;-63
2022/01/31 08:00:13;;;;;;;10.23;6.73;;;2.70;99.90;;;3.19;98.63;97336.19;5230561;28;20315;-63
2022/01/31 08:02:46;;;;;;;10.27;7.20;;;2.70;99.90;;;3.21;98.86;97334.66;5221539;28;20221;-62
2022/01/31 08:05:21;;;;;;;9.13;6.57;;;2.70;99.90;;;3.14;99.42;97344.25;5222149;28;20217;-68
2022/01/31 08:07:54;;;;;;;9.83;6.70;;;2.60;99.90;;;3.37;99.82;97333.38;5227862;28;20687;-68
2022/01/31 08:10:27;;;;;;;10.73;6.27;;;2.70;99.90;;;3.30;100.00;97330.31;5224299;28;20217;-68
2022/01/31 08:13:01;;;;;;;8.83;6.83;;;2.80;99.90;;;3.24;100.00;97350.91;5226217;28;20258;-68
2022/01/31 08:15:46;;;;;;;11.37;7.37;;;2.70;99.90;;;3.37;100.00;97333.38;5225820;28;20718;-68
2022/01/31 08:18:19;;;;;;;13.80;7.10;;;2.80;99.90;;;3.41;100.00;97334.53;5220801;28;20226;-67
2022/01/31 08:20:52;;;;;;;9.07;6.67;;;2.80;99.90;;;3.41;100.00;97357.25;5226859;28;20217;-68
2022/01/31 08:23:25;;;;;;;8.37;6.53;;;2.90;99.90;;;3.37;100.00;97340.97;5231897;28;20220;-67
2022/01/31 08:26:01;;;;;;;7.90;6.00;;;2.80;99.90;;;3.49;100.00;97361.25;5230163;28;20221;-68
2022/01/31 08:28:38;;;;;;;9.70;6.80;;;2.90;99.90;;;3.68;100.00;97355.03;5228811;28;20231;-67
2022/01/31 08:31:17;;;;;;;9.23;6.10;;;3.00;99.90;;;3.79;100.00;97332.34;5230968;28;20234;-67
2022/01/31 08:34:04;;;;;;;9.70;6.40;;;3.10;99.90;;;3.91;99.65;97314.66;5229066;28;20697;-67
2022/01/31 08:36:37;;;;;;;6.27;5.40;;;3.20;99.90;;;3.94;100.00;97319.94;5229820;28;20243;-68
2022/01/31 08:39:15;;;;;;;6.03;5.43;;;3.30;99.90;;;3.89;99.75;97335.53;5226869;28;20243;-67
2022/01/31 08:41:51;;;;;;;6.90;6.00;;;3.30;99.90;;;3.79;100.00;97346.63;5221754;28;20496;-67
2022/01/31 08:44:24;;;;;;;8.07;5.37;;;3.30;99.90;;;3.98;99.92;97354.81;5233042;28;20244;-66
2022/01/31 08:46:59;;;;;;;7.93;6.13;;;3.30;99.90;;;3.95;100.00;97346.09;5230432;28;20317;-67
2022/01/31 08:49:36;;;;;;;7.07;5.97;;;3.30;99.90;;;3.88;100.00;97344.78;5234830;28;20230;-69
2022/01/31 08:52:09;;;;;;;6.67;5.67;;;3.30;99.90;;;3.90;100.00;97338.19;5230588;28;20224;-66
2022/01/31 08:54:42;;;;;;;7.50;6.00;;;3.30;99.90;;;4.06;99.94;97347.75;5231955;28;20249;-67
2022/01/31 08:57:15;;;;;;;6.33;5.73;;;3.40;99.90;;;4.12;99.44;97352.41;5228062;28;20228;-66
2022/01/31 08:59:51;;;;;;;6.17;5.53;;;3.40;99.90;;;4.00;99.78;97340.59;5214281;28;20218;-67
2022/01/31 09:02:37;;;;;;;6.63;5.53;;;3.40;99.90;;;4.07;99.27;97322.59;5228714;28;20216;-67
2022/01/31 09:05:10;;;;;;;6.87;5.00;;;3.40;99.90;;;4.06;98.89;97338.56;5228451;28;20221;-66
2022/01/31 09:07:43;;;;;;;5.27;4.73;;;3.40;99.90;;;4.03;99.46;97328.22;5238273;28;20237;-66
2022/01/31 09:10:18;;;;;;;5.53;5.00;;;3.40;99.90;;;3.98;100.00;97324.47;5216662;28;20590;-66
2022/01/31 09:12:51;;;;;;;7.33;6.17;;;3.40;99.90;;;3.97;100.00;97327.75;5235860;28;20224;-67
2022/01/31 09:15:24;;;;;;;5.97;5.43;;;3.40;99.90;;;4.04;100.00;97322.38;5227066;28;20221;-67
2022/01/31 09:17:58;;;;;;;5.67;5.07;;;3.40;99.90;;;4.09;100.00;97325.22;5220519;28;20262;-67
2022/01/31 09:20:31;;;;;;;6.60;5.17;;;3.50;99.90;;;4.18;100.00;97330.13;5228171;28;20227;-67
2022/01/31 09:23:10;;;;;;;6.57;5.07;;;3.50;99.90;;;4.22;100.00;97332.94;5226050;28;20213;-66
2022/01/31 09:25:46;;;;;;;5.73;5.13;;;3.50;99.90;;;4.20;100.00;97326.91;5241835;28;20228;-67
2022/01/31 09:28:19;;;;;;;7.33;5.27;;;3.60;99.90;;;4.32;100.00;97315.91;5220019;28;20220;-64
2022/01/31 09:30:54;;;;;;;6.37;5.73;;;3.60;99.90;;;4.43;100.00;97318.44;5232843;28;20232;-66
2022/01/31 09:33:31;;;;;;;6.33;5.67;;;3.60;99.90;;;4.36;100.00;97313.72;5230389;28;20715;-67
2022/01/31 09:36:05;;;;;;;5.07;4.67;;;3.60;99.90;;;4.42;100.00;97316.69;5224561;28;20230;-66
2022/01/31 09:38:40;;;;;;;5.83;4.97;;;3.60;99.90;;;4.40;100.00;97314.81;5233946;28;20220;-63
2022/01/31 09:41:18;;;;;;;5.30;4.80;;;3.70;99.90;;;4.50;100.00;97327.38;5207323;28;20278;-66
2022/01/31 09:44:05;;;;;;;6.83;4.77;;;3.70;99.90;;;4.42;100.00;97311.63;5231393;28;20318;-66
2022/01/31 09:49:24;;;;;;;5.83;4.43;;;3.70;99.90;;;4.47;100.00;97315.38;5227185;28;20224;-67
2022/01/31 09:51:57;;;;;;;5.77;4.83;;;3.70;99.90;;;4.48;99.91;97317.13;5220194;28;20224;-66
2022/01/31 09:54:30;;;;;;;6.00;4.53;;;3.70;99.90;;;4.43;100.00;97308.31;5237350;28;20713;-66
2022/01/31 09:57:04;;;;;;;4.40;4.00;;;3.70;99.90;;;4.53;100.00;97311.53;5225663;28;20231;-66
2022/01/31 09:59:37;;;;;;;6.23;4.73;;;3.70;99.90;;;4.55;99.72;97317.56;5225084;28;20442;-66
2022/01/31 10:02:14;;;;;;;4.67;3.93;;;3.80;99.90;;;4.55;99.79;97309.97;5241239;28;20219;-66
2022/01/31 10:04:49;;;;;;;5.30;4.90;;;3.80;99.90;;;4.53;100.00;97319.13;5221463;28;20455;-66
2022/01/31 10:07:22;;;;;;;5.60;3.97;;;3.80;99.90;;;4.61;99.90;97320.53;5217480;28;20590;-66
2022/01/31 10:09:55;;;;;;;4.50;4.10;;;3.80;99.90;;;4.68;99.36;97316.00;5230460;28;20235;-66
2022/01/31 10:18:14;;;;;;;6.27;5.67;;;3.80;99.90;;;4.63;99.33;97326.56;5229687;28;20226;-66
2022/01/31 10:21:09;;;;;;;12.47;9.13;;;3.80;99.90;;;4.54;99.21;97325.91;5227584;28;20227;-66
2022/01/31 10:23:42;;;;;;;7.43;6.60;;;3.70;99.90;;;4.49;100.00;97318.00;5232026;28;20223;-67
2022/01/31 10:26:29;;;;;;;6.27;5.07;;;3.70;99.90;;;4.53;100.00;97311.53;5215038;28;20255;-66
2022/01/31 10:29:11;;;;;;;6.13;5.53;;;3.70;99.90;;;4.48;99.45;97313.72;5236279;28;20938;-66
2022/01/31 10:32:05;;;;;;;7.80;4.60;;;3.70;99.90;;;4.60;99.26;97308.63;5238099;28;20235;-66
2022/01/31 10:34:45;;;;;;;4.43;4.03;;;3.80;99.90;;;4.50;98.65;97315.59;5238539;28;20231;-67
2022/01/31 10:37:22;;;;;;;4.40;3.80;;;3.80;99.90;;;4.60;98.71;97296.84;5248373;22;20227;-69
2022/01/31 10:45:54;;;;;;;5.10;4.17;;;4.00;99.90;;;4.76;94.67;97286.19;5243600;28;20233;-68
2022/01/31 10:54:38;;;;;;;26.70;23.77;;;4.20;99.90;;;4.99;92.20;97277.63;5228368;28;20722;-69
2022/01/31 10:57:19;;;;;;;11.60;9.77;;;4.30;99.90;;;5.02;90.75;97270.25;5226144;28;20221;-66
2022/01/31 11:00:00;;;;;;;9.03;6.67;;;4.40;99.90;;;5.01;91.34;97265.06;5227923;28;20592;-69
2022/01/31 11:02:37;;;;;;;12.53;11.33;;;4.40;99.90;;;5.04;89.36;97266.19;5226271;28;20229;-68
2022/01/31 11:05:23;;;;;;;8.67;7.77;;;4.50;99.90;;;5.26;88.04;97243.16;5224672;28;20252;-68
2022/01/31 11:08:14;;;;;;;3.90;3.60;;;4.50;99.90;;;5.27;87.95;97275.34;5225968;28;20585;-68
2022/01/31 11:10:49;;;;;;;5.37;3.13;;;4.60;99.90;;;5.13;87.74;97282.00;5225336;28;20222;-68
2022/01/31 11:13:22;;;;;;;6.03;5.43;;;4.50;99.90;;;5.11;88.96;97263.28;5220862;28;20229;-68
2022/01/31 11:15:56;;;;;;;3.77;3.47;;;4.50;99.90;;;5.13;87.58;97255.78;5222509;28;20224;-67
2022/01/31 11:18:32;;;;;;;5.27;3.63;;;4.50;99.90;;;5.13;86.81;97248.19;5225964;28;20298;-67
2022/01/31 11:21:08;;;;;;;4.73;3.90;;;4.50;99.90;;;5.15;87.29;97260.19;5224342;28;20224;-67